Oaktown, Indiana
Current Conditions -  °F | °C
As of 12:53 PM on Tuesday 21 Oct 2014 (Local Time) from KLWV Reporting Station
Broken Clouds Broken Clouds  
Wind Chill: 60°   Ceiling: 4300
Heat Index: 60°   Visibility: 10mi
Dew Point: 42°   Wind: 13mph
Humidity: 51%   Direction: 340°NNW
Pressure: 30.11"   Gusts: NA
Location:  38.87°N, 87.44°W
Report Text: KLWV 211753Z AUTO 34011KT 10SM BKN043 16/06 A3011 RMK AO2 SLP198 T01560056 10167 20056 50001
Loading
Personal Weather Stations






























Interactive Weather Map
Tropical Storm Tracking
New forecast layout! Learn more

10-Day Weather Forecast

Advertisements
Track Severe Weather on mobile